Time;durP1;ratioP1;P1;durP2;ratioP2;P2;SDS_P1;SDS_P2;PMS_P1;PMS_P2;Temp;Humidity;BMP_temperature;BMP_pressure;BME280_temperature;BME280_humidity;BME280_pressure;Samples;Min_cycle;Max_cycle;Signal;HPM_P1;HPM_P2
2022/04/14 00:00:00;;;;;;;;;;;22.60;27.20;;;;;;691129;28;1221;-86
2022/04/14 00:00:21;;;;;;;;;;;22.70;27.20;;;;;;688361;28;1136;-86
2022/04/14 00:00:42;;;;;;;;;;;22.60;27.20;;;;;;688594;28;1347;-86
2022/04/14 00:01:02;;;;;;;;;;;22.60;27.20;;;;;;691026;28;1229;-88
2022/04/14 00:01:23;;;;;;;;;;;22.60;27.10;;;;;;688568;28;1429;-87
2022/04/14 00:01:43;;;;;;;;;;;22.60;27.10;;;;;;688250;28;1122;-87
2022/04/14 00:02:04;;;;;;;;;;;22.60;27.10;;;;;;690786;28;1255;-87
2022/04/14 00:02:25;;;;;;;;;;;22.60;27.20;;;;;;688542;28;1101;-87
2022/04/14 00:02:45;;;;;;;;;;;22.60;27.10;;;;;;690837;28;1146;-86
2022/04/14 00:03:06;;;;;;;;;;;22.60;27.10;;;;;;691023;28;1228;-88
2022/04/14 00:03:26;;;;;;;;;;;22.60;27.10;;;;;;691445;28;1252;-87
2022/04/14 00:03:47;;;;;;;;;;;22.60;27.00;;;;;;693770;28;870;-85
2022/04/14 00:04:08;;;;;;;;;;;22.60;27.10;;;;;;691401;28;1328;-87
2022/04/14 00:04:28;;;;;;;;;;;22.60;27.00;;;;;;691195;28;1278;-86
2022/04/14 00:04:49;;;;;;;;;;;22.60;27.00;;;;;;688394;28;1177;-85
2022/04/14 00:05:09;;;;;;;;;;;22.60;27.00;;;;;;691297;28;1258;-86
2022/04/14 00:05:30;;;;;;;;;;;22.60;26.90;;;;;;694041;28;1308;-86
2022/04/14 00:05:50;;;;;;;;;;;22.60;27.00;;;;;;693737;28;1279;-86
2022/04/14 00:06:11;;;;;;;;;;;22.60;27.10;;;;;;694059;28;712;-87
2022/04/14 00:06:31;;;;;;;;;;;22.60;27.00;;;;;;693611;28;1230;-87
2022/04/14 00:06:52;;;;;;;;;;;22.60;27.10;;;;;;690908;28;1276;-88
2022/04/14 00:07:13;;;;;;;;;;;22.60;27.10;;;;;;688505;28;1379;-87
2022/04/14 00:07:33;;;;;;;;;;;22.60;27.20;;;;;;688539;28;1211;-87
2022/04/14 00:07:54;;;;;;;;;;;22.60;27.20;;;;;;690848;28;1331;-87
2022/04/14 00:08:14;;;;;;;;;;;22.60;27.20;;;;;;691200;28;1212;-86
2022/04/14 00:08:35;;;;;;;;;;;22.60;27.30;;;;;;691249;28;1060;-87
2022/04/14 00:08:55;;;;;;;;;;;22.60;27.20;;;;;;690845;28;1185;-87
2022/04/14 00:09:16;;;;;;;;;;;22.60;27.20;;;;;;688398;28;1960;-86
2022/04/14 00:09:37;;;;;;;;;;;22.60;27.20;;;;;;688287;28;1335;-86
2022/04/14 00:09:57;;;;;;;;;;;22.60;27.00;;;;;;686045;28;1413;-86
2022/04/14 00:10:18;;;;;;;;;;;22.60;27.00;;;;;;685868;28;1083;-87
2022/04/14 00:10:39;;;;;;;;;;;22.60;26.90;;;;;;688585;28;1340;-88
2022/04/14 00:10:59;;;;;;;;;;;22.60;27.00;;;;;;691334;28;1196;-86
2022/04/14 00:11:20;;;;;;;;;;;22.60;27.00;;;;;;693893;28;1161;-86
2022/04/14 00:11:40;;;;;;;;;;;22.60;27.10;;;;;;693903;28;1212;-87
2022/04/14 00:12:01;;;;;;;;;;;22.60;27.10;;;;;;696431;28;1132;-89
2022/04/14 00:12:22;;;;;;;;;;;22.60;27.10;;;;;;696465;28;1297;-87
2022/04/14 00:12:42;;;;;;;;;;;22.60;27.10;;;;;;696763;28;810;-87
2022/04/14 00:13:03;;;;;;;;;;;22.60;27.10;;;;;;699079;28;1251;-87
2022/04/14 00:13:24;;;;;;;;;;;22.60;27.00;;;;;;696974;28;1195;-87
2022/04/14 00:13:44;;;;;;;;;;;22.60;26.90;;;;;;699707;28;1183;-86
2022/04/14 00:14:05;;;;;;;;;;;22.60;27.00;;;;;;696929;28;1264;-86
2022/04/14 00:14:26;;;;;;;;;;;22.60;27.00;;;;;;696907;28;1365;-87
2022/04/14 00:14:47;;;;;;;;;;;22.60;27.00;;;;;;696990;28;1204;-88
2022/04/14 00:15:08;;;;;;;;;;;22.60;27.00;;;;;;694158;28;1105;-87
2022/04/14 00:15:28;;;;;;;;;;;22.60;27.00;;;;;;691455;28;1125;-88
2022/04/14 00:15:49;;;;;;;;;;;22.50;27.00;;;;;;692109;28;776;-87
2022/04/14 00:16:10;;;;;;;;;;;22.60;27.00;;;;;;694021;28;1165;-87
2022/04/14 00:16:30;;;;;;;;;;;22.60;26.90;;;;;;694774;28;838;-87
2022/04/14 00:16:51;;;;;;;;;;;22.50;26.90;;;;;;694510;28;1176;-88
2022/04/14 00:17:14;;;;;;;;;;;22.50;27.00;;;;;;694389;28;1358;-89
2022/04/14 00:17:35;;;;;;;;;;;22.60;27.00;;;;;;694297;28;1206;-87
2022/04/14 00:17:55;;;;;;;;;;;22.50;26.90;;;;;;694155;28;1319;-88
2022/04/14 00:18:16;;;;;;;;;;;22.50;26.80;;;;;;691412;28;1217;-87
2022/04/14 00:18:37;;;;;;;;;;;22.50;26.90;;;;;;695134;28;1240;-88
2022/04/14 00:18:57;;;;;;;;;;;22.50;26.90;;;;;;696963;28;1105;-87
2022/04/14 00:19:18;;;;;;;;;;;22.50;26.80;;;;;;696949;28;898;-87
2022/04/14 00:19:40;;;;;;;;;;;22.50;26.80;;;;;;696848;28;1219;-88
2022/04/14 00:20:01;;;;;;;;;;;22.60;27.00;;;;;;696986;28;1239;-87
2022/04/14 00:20:23;;;;;;;;;;;22.50;26.80;;;;;;696907;28;1438;-88
2022/04/14 00:20:44;;;;;;;;;;;22.50;26.80;;;;;;697722;28;1135;-87
2022/04/14 00:21:04;;;;;;;;;;;22.50;26.90;;;;;;696941;28;1281;-88
2022/04/14 00:21:25;;;;;;;;;;;22.50;27.00;;;;;;696066;28;1211;-87
2022/04/14 00:21:46;;;;;;;;;;;22.50;26.80;;;;;;696312;28;1124;-88
2022/04/14 00:22:06;;;;;;;;;;;22.50;26.80;;;;;;697452;28;1194;-88
2022/04/14 00:22:27;;;;;;;;;;;22.50;26.90;;;;;;696932;28;1307;-88
2022/04/14 00:22:47;;;;;;;;;;;22.50;26.90;;;;;;694016;28;1302;-88
2022/04/14 00:23:08;;;;;;;;;;;22.50;27.10;;;;;;694351;28;1335;-88
2022/04/14 00:23:29;;;;;;;;;;;22.50;27.10;;;;;;693923;28;1327;-87
2022/04/14 00:23:49;;;;;;;;;;;22.50;27.10;;;;;;691737;28;1380;-87
2022/04/14 00:24:11;;;;;;;;;;;22.50;27.00;;;;;;694105;28;1287;-88
2022/04/14 00:24:31;;;;;;;;;;;22.50;26.90;;;;;;694259;28;1347;-87
2022/04/14 00:24:52;;;;;;;;;;;22.50;27.00;;;;;;691676;28;1133;-88
2022/04/14 00:25:12;;;;;;;;;;;22.50;27.00;;;;;;693975;28;1240;-88
2022/04/14 00:25:33;;;;;;;;;;;22.50;27.10;;;;;;694592;28;1144;-88
2022/04/14 00:25:53;;;;;;;;;;;22.50;27.10;;;;;;696916;28;1331;-87
2022/04/14 00:26:14;;;;;;;;;;;22.50;27.00;;;;;;694011;28;1462;-87
2022/04/14 00:26:35;;;;;;;;;;;22.50;27.00;;;;;;694176;28;1369;-87
2022/04/14 00:26:55;;;;;;;;;;;22.50;26.90;;;;;;691472;28;1208;-87
2022/04/14 00:27:19;;;;;;;;;;;22.40;26.90;;;;;;688988;28;1219;-87
2022/04/14 00:27:40;;;;;;;;;;;22.50;27.70;;;;;;691353;28;1154;-87
2022/04/14 00:28:01;;;;;;;;;;;22.50;27.00;;;;;;689343;28;1445;-88
2022/04/14 00:28:21;;;;;;;;;;;22.50;27.00;;;;;;688652;28;1195;-88
2022/04/14 00:28:42;;;;;;;;;;;22.50;26.90;;;;;;689646;28;1219;-88
2022/04/14 00:29:02;;;;;;;;;;;22.50;27.00;;;;;;692204;28;819;-89
2022/04/14 00:29:23;;;;;;;;;;;22.50;26.90;;;;;;691604;28;1902;-88
2022/04/14 00:29:43;;;;;;;;;;;22.50;26.90;;;;;;691901;28;1216;-88
2022/04/14 00:30:04;;;;;;;;;;;22.50;26.90;;;;;;691793;28;1318;-88
2022/04/14 00:30:25;;;;;;;;;;;22.50;26.90;;;;;;694103;28;1114;-88
2022/04/14 00:30:46;;;;;;;;;;;22.50;27.00;;;;;;691377;28;1211;-87
2022/04/14 00:31:06;;;;;;;;;;;22.50;27.00;;;;;;691364;28;1200;-88
2022/04/14 00:31:27;;;;;;;;;;;22.50;27.00;;;;;;691765;28;1305;-87
2022/04/14 00:31:47;;;;;;;;;;;22.50;26.90;;;;;;691369;28;1097;-87
2022/04/14 00:32:08;;;;;;;;;;;22.50;26.80;;;;;;691337;28;1101;-88
2022/04/14 00:32:31;;;;;;;;;;;22.50;26.90;;;;;;691831;28;1233;-86
2022/04/14 00:32:51;;;;;;;;;;;22.50;26.90;;;;;;691384;28;1484;-87
2022/04/14 00:33:12;;;;;;;;;;;22.50;26.90;;;;;;691898;28;1256;-88
2022/04/14 00:33:33;;;;;;;;;;;22.50;26.90;;;;;;692029;28;1290;-87
2022/04/14 00:33:53;;;;;;;;;;;22.50;26.90;;;;;;691942;28;1149;-86
2022/04/14 00:34:14;;;;;;;;;;;22.50;26.90;;;;;;691372;28;1107;-87
2022/04/14 00:34:34;;;;;;;;;;;22.50;26.80;;;;;;691736;28;1214;-86
2022/04/14 00:34:55;;;;;;;;;;;22.40;26.70;;;;;;690627;28;1205;-88
2022/04/14 00:35:16;;;;;;;;;;;22.40;26.80;;;;;;688602;28;1110;-88
2022/04/14 00:35:36;;;;;;;;;;;22.50;26.90;;;;;;688884;28;1181;-89
2022/04/14 00:35:57;;;;;;;;;;;22.50;27.00;;;;;;691459;28;1137;-88
2022/04/14 00:36:18;;;;;;;;;;;22.50;27.00;;;;;;691739;28;1248;-87
2022/04/14 00:36:40;;;;;;;;;;;22.50;27.00;;;;;;694590;28;827;-88
2022/04/14 00:37:00;;;;;;;;;;;22.40;26.90;;;;;;694170;28;1193;-88
2022/04/14 00:37:21;;;;;;;;;;;22.50;26.90;;;;;;694664;28;1082;-89
2022/04/14 00:37:42;;;;;;;;;;;22.40;26.90;;;;;;694109;28;1325;-88
2022/04/14 00:38:02;;;;;;;;;;;22.50;27.00;;;;;;691896;28;1223;-88
2022/04/14 00:38:23;;;;;;;;;;;22.50;26.90;;;;;;691267;28;1312;-88
2022/04/14 00:38:43;;;;;;;;;;;22.50;26.90;;;;;;690992;28;1300;-87
2022/04/14 00:39:04;;;;;;;;;;;22.40;27.00;;;;;;688716;28;1320;-87
2022/04/14 00:39:25;;;;;;;;;;;22.50;27.00;;;;;;691621;28;1244;-88
2022/04/14 00:39:45;;;;;;;;;;;22.40;26.90;;;;;;691595;28;1322;-87
2022/04/14 00:40:06;;;;;;;;;;;22.50;26.90;;;;;;694194;28;1326;-87
2022/04/14 00:40:27;;;;;;;;;;;22.50;26.90;;;;;;694545;28;1223;-88
2022/04/14 00:40:49;;;;;;;;;;;22.40;26.90;;;;;;696984;28;1283;-87
2022/04/14 00:41:10;;;;;;;;;;;22.50;26.80;;;;;;697483;28;1350;-87
2022/04/14 00:41:30;;;;;;;;;;;22.40;26.80;;;;;;697022;28;1208;-87
2022/04/14 00:41:51;;;;;;;;;;;22.40;26.70;;;;;;696546;28;914;-87
2022/04/14 00:42:12;;;;;;;;;;;22.40;26.80;;;;;;694028;28;1184;-87
2022/04/14 00:42:32;;;;;;;;;;;22.40;26.70;;;;;;694143;28;1370;-88
2022/04/14 00:42:53;;;;;;;;;;;22.40;26.70;;;;;;694405;28;1233;-88
2022/04/14 00:43:13;;;;;;;;;;;22.40;26.80;;;;;;696777;28;1338;-87
2022/04/14 00:43:34;;;;;;;;;;;22.40;26.70;;;;;;696955;28;708;-87
2022/04/14 00:43:55;;;;;;;;;;;22.40;26.80;;;;;;697163;28;1124;-87
2022/04/14 00:44:16;;;;;;;;;;;22.50;26.80;;;;;;696716;28;1273;-88
2022/04/14 00:44:36;;;;;;;;;;;22.40;26.80;;;;;;694004;28;1345;-87
2022/04/14 00:44:57;;;;;;;;;;;22.50;27.00;;;;;;691441;28;1472;-87
2022/04/14 00:45:18;;;;;;;;;;;22.50;27.10;;;;;;691295;28;1113;-87
2022/04/14 00:45:38;;;;;;;;;;;22.50;27.10;;;;;;691310;28;1518;-88
2022/04/14 00:45:59;;;;;;;;;;;22.40;27.10;;;;;;689093;28;1270;-87
2022/04/14 00:46:20;;;;;;;;;;;22.50;27.10;;;;;;689063;28;1184;-87
2022/04/14 00:46:41;;;;;;;;;;;22.50;27.00;;;;;;689026;28;1205;-88
2022/04/14 00:47:02;;;;;;;;;;;22.50;27.00;;;;;;691512;28;1213;-88
2022/04/14 00:47:23;;;;;;;;;;;22.50;27.10;;;;;;689151;28;1353;-89
2022/04/14 00:47:43;;;;;;;;;;;22.50;27.10;;;;;;691332;28;1208;-86
2022/04/14 00:48:04;;;;;;;;;;;22.50;27.20;;;;;;688796;28;1195;-88
2022/04/14 00:48:24;;;;;;;;;;;22.50;27.10;;;;;;689012;28;1310;-87
2022/04/14 00:48:45;;;;;;;;;;;22.50;27.00;;;;;;691885;28;1400;-87
2022/04/14 00:49:06;;;;;;;;;;;22.50;26.90;;;;;;691650;28;1320;-88
2022/04/14 00:49:26;;;;;;;;;;;22.50;27.00;;;;;;694037;28;1910;-87
2022/04/14 00:49:47;;;;;;;;;;;22.50;27.00;;;;;;691793;28;1114;-87
2022/04/14 00:50:10;;;;;;;;;;;22.50;27.10;;;;;;694147;28;1256;-86
2022/04/14 00:50:30;;;;;;;;;;;22.50;27.30;;;;;;694664;28;1207;-87
2022/04/14 00:50:51;;;;;;;;;;;22.50;27.40;;;;;;696835;28;1146;-88
2022/04/14 00:51:12;;;;;;;;;;;22.50;27.30;;;;;;694623;28;1198;-89
2022/04/14 00:51:32;;;;;;;;;;;22.50;27.30;;;;;;694134;28;1145;-87
2022/04/14 00:51:53;;;;;;;;;;;22.50;27.10;;;;;;694329;28;803;-87
2022/04/14 00:52:14;;;;;;;;;;;22.50;27.00;;;;;;691495;28;1201;-87
2022/04/14 00:52:34;;;;;;;;;;;22.50;26.90;;;;;;691793;28;1106;-87
2022/04/14 00:52:55;;;;;;;;;;;22.50;26.90;;;;;;691226;28;1349;-87
2022/04/14 00:53:16;;;;;;;;;;;22.50;26.90;;;;;;694475;28;931;-87
2022/04/14 00:53:37;;;;;;;;;;;22.50;26.90;;;;;;696743;28;1290;-87
2022/04/14 00:53:58;;;;;;;;;;;22.60;26.90;;;;;;696994;28;834;-87
2022/04/14 00:54:19;;;;;;;;;;;22.50;26.80;;;;;;697252;28;1294;-88
2022/04/14 00:54:39;;;;;;;;;;;22.60;26.90;;;;;;696815;28;1359;-87
2022/04/14 00:55:00;;;;;;;;;;;22.50;26.80;;;;;;696871;28;1208;-87
2022/04/14 00:55:20;;;;;;;;;;;22.50;26.80;;;;;;696729;28;1405;-86
2022/04/14 00:55:41;;;;;;;;;;;22.60;26.80;;;;;;693864;28;1354;-88
2022/04/14 00:56:02;;;;;;;;;;;22.60;26.90;;;;;;694049;28;1362;-88
2022/04/14 00:56:22;;;;;;;;;;;22.60;26.90;;;;;;691619;28;1216;-87
2022/04/14 00:56:43;;;;;;;;;;;22.60;26.90;;;;;;691182;28;1482;-87
2022/04/14 00:57:04;;;;;;;;;;;22.50;26.80;;;;;;688757;28;1262;-86
2022/04/14 00:57:24;;;;;;;;;;;22.60;26.80;;;;;;686343;28;1209;-87
2022/04/14 00:57:46;;;;;;;;;;;22.60;26.80;;;;;;688816;28;1305;-87
2022/04/14 00:58:06;;;;;;;;;;;22.60;26.80;;;;;;688910;28;1229;-88
2022/04/14 00:58:27;;;;;;;;;;;22.60;26.80;;;;;;688610;28;1374;-87
2022/04/14 00:58:48;;;;;;;;;;;22.60;26.80;;;;;;688149;28;1382;-87
2022/04/14 00:59:09;;;;;;;;;;;22.60;26.90;;;;;;686376;28;1413;-86
2022/04/14 00:59:29;;;;;;;;;;;22.60;26.80;;;;;;686480;28;1224;-87
2022/04/14 00:59:50;;;;;;;;;;;22.50;26.70;;;;;;686259;28;1274;-86
2022/04/14 01:00:11;;;;;;;;;;;20.20;25.80;;;;;;691347;28;1360;-87
2022/04/14 01:00:31;;;;;;;;;;;22.60;26.70;;;;;;691464;28;1130;-88
2022/04/14 01:00:52;;;;;;;;;;;22.60;26.80;;;;;;691161;28;1195;-88
2022/04/14 01:01:13;;;;;;;;;;;22.60;26.70;;;;;;691246;28;1380;-87
2022/04/14 01:01:34;;;;;;;;;;;22.60;26.70;;;;;;691083;28;1228;-87
2022/04/14 01:01:55;;;;;;;;;;;22.60;26.80;;;;;;688626;28;1332;-86
2022/04/14 01:02:16;;;;;;;;;;;22.60;26.80;;;;;;688990;28;1410;-87
2022/04/14 01:02:37;;;;;;;;;;;22.60;26.80;;;;;;691473;28;819;-85
2022/04/14 01:02:57;;;;;;;;;;;22.60;26.60;;;;;;691371;28;1364;-86
2022/04/14 01:03:18;;;;;;;;;;;22.60;26.70;;;;;;691443;28;1215;-85
2022/04/14 01:03:39;;;;;;;;;;;22.60;26.80;;;;;;691834;28;917;-86
2022/04/14 01:04:00;;;;;;;;;;;22.60;26.80;;;;;;694738;28;771;-86
2022/04/14 01:04:21;;;;;;;;;;;22.60;26.70;;;;;;697115;28;810;-86
2022/04/14 01:04:41;;;;;;;;;;;22.60;26.80;;;;;;694477;28;1279;-87
2022/04/14 01:05:04;;;;;;;;;;;22.60;26.80;;;;;;694594;28;1244;-86
2022/04/14 01:05:26;;;;;;;;;;;22.60;26.80;;;;;;694060;28;1325;-86
2022/04/14 01:05:47;;;;;;;;;;;22.60;26.80;;;;;;693990;28;1239;-85
2022/04/14 01:06:09;;;;;;;;;;;22.60;26.70;;;;;;693950;28;1135;-87
2022/04/14 01:06:30;;;;;;;;;;;22.60;26.50;;;;;;695076;28;1308;-86
2022/04/14 01:06:51;;;;;;;;;;;22.60;26.80;;;;;;697879;28;1255;-88
2022/04/14 01:07:12;;;;;;;;;;;22.60;26.50;;;;;;696702;28;1114;-86
2022/04/14 01:07:34;;;;;;;;;;;22.60;26.60;;;;;;696831;28;1314;-86
2022/04/14 01:07:56;;;;;;;;;;;22.60;26.70;;;;;;696668;28;962;-87
2022/04/14 01:08:17;;;;;;;;;;;22.60;26.70;;;;;;696746;28;1206;-85
2022/04/14 01:08:38;;;;;;;;;;;22.60;26.70;;;;;;696865;28;1215;-85
2022/04/14 01:09:20;;;;;;;;;;;22.60;26.60;;;;;;696766;28;1376;-86
2022/04/14 01:09:41;;;;;;;;;;;22.60;26.70;;;;;;696980;28;1232;-85
2022/04/14 01:10:02;;;;;;;;;;;22.60;26.50;;;;;;696784;28;1243;-86
2022/04/14 01:10:25;;;;;;;;;;;22.60;26.70;;;;;;697236;28;1268;-87
2022/04/14 01:10:47;;;;;;;;;;;22.60;26.70;;;;;;699549;28;1211;-87
2022/04/14 01:11:09;;;;;;;;;;;22.60;26.80;;;;;;696916;28;1368;-87
2022/04/14 01:11:30;;;;;;;;;;;22.60;26.70;;;;;;693107;28;1129;-86
2022/04/14 01:11:52;;;;;;;;;;;22.60;26.70;;;;;;688493;28;1326;-88
2022/04/14 01:12:13;;;;;;;;;;;22.60;26.60;;;;;;687164;28;1262;-88
2022/04/14 01:12:34;;;;;;;;;;;22.60;26.70;;;;;;689520;28;1374;-86
2022/04/14 01:12:55;;;;;;;;;;;22.60;26.60;;;;;;689431;28;1201;-85
2022/04/14 01:13:16;;;;;;;;;;;22.60;26.70;;;;;;691934;28;1291;-85
2022/04/14 01:13:37;;;;;;;;;;;22.60;26.70;;;;;;691227;28;1212;-86
2022/04/14 01:13:58;;;;;;;;;;;22.60;26.60;;;;;;691833;28;1242;-85
2022/04/14 01:14:28;;;;;;;;;;;22.60;26.40;;;;;;691285;28;1378;-86
2022/04/14 01:14:49;;;;;;;;;;;22.60;26.40;;;;;;693087;28;1374;-86
2022/04/14 01:15:10;;;;;;;;;;;22.60;26.40;;;;;;693029;28;1276;-85
2022/04/14 01:15:31;;;;;;;;;;;22.60;26.50;;;;;;691280;28;1270;-88
2022/04/14 01:15:56;;;;;;;;;;;22.60;26.50;;;;;;690312;28;1343;-86
2022/04/14 01:16:16;;;;;;;;;;;22.60;26.50;;;;;;688578;28;1141;-86
2022/04/14 01:16:37;;;;;;;;;;;22.60;26.50;;;;;;689488;28;1151;-86
2022/04/14 01:16:59;;;;;;;;;;;22.60;26.50;;;;;;689477;28;1400;-85
2022/04/14 01:17:19;;;;;;;;;;;22.60;26.50;;;;;;689567;28;1228;-85
2022/04/14 01:17:40;;;;;;;;;;;22.60;26.50;;;;;;689491;28;1300;-85
2022/04/14 01:18:01;;;;;;;;;;;22.60;26.50;;;;;;688670;28;1224;-87
2022/04/14 01:18:22;;;;;;;;;;;22.60;26.60;;;;;;688714;28;1214;-86
2022/04/14 01:18:42;;;;;;;;;;;22.60;26.60;;;;;;686324;28;1304;-85
2022/04/14 01:19:03;;;;;;;;;;;22.60;26.70;;;;;;689071;28;747;-87
2022/04/14 01:19:24;;;;;;;;;;;22.60;26.70;;;;;;691643;28;1251;-85
2022/04/14 01:19:44;;;;;;;;;;;22.60;26.60;;;;;;693869;28;1413;-85
2022/04/14 01:20:05;;;;;;;;;;;22.60;26.70;;;;;;694316;28;1315;-86
2022/04/14 01:20:26;;;;;;;;;;;22.60;26.60;;;;;;694336;28;1230;-85
2022/04/14 01:20:46;;;;;;;;;;;22.60;26.60;;;;;;696721;28;1458;-85
2022/04/14 01:21:08;;;;;;;;;;;22.50;26.50;;;;;;696261;28;1329;-85
2022/04/14 01:21:33;;;;;;;;;;;22.60;26.60;;;;;;694486;28;1138;-85
2022/04/14 01:22:02;;;;;;;;;;;22.60;26.50;;;;;;694968;28;1195;-86
2022/04/14 01:22:24;;;;;;;;;;;22.60;26.50;;;;;;693968;28;1101;-85
2022/04/14 01:22:51;;;;;;;;;;;22.60;26.60;;;;;;691229;28;1344;-85
2022/04/14 01:23:15;;;;;;;;;;;22.60;27.20;;;;;;688765;28;1184;-86
2022/04/14 01:23:44;;;;;;;;;;;22.60;26.40;;;;;;691378;28;1384;-85
2022/04/14 01:24:06;;;;;;;;;;;22.60;26.50;;;;;;691373;28;1093;-85
2022/04/14 01:24:27;;;;;;;;;;;22.60;26.50;;;;;;694281;28;1211;-86
2022/04/14 01:24:48;;;;;;;;;;;22.60;26.40;;;;;;693916;28;1092;-85
2022/04/14 01:25:08;;;;;;;;;;;22.50;26.40;;;;;;693998;28;1319;-85
2022/04/14 01:25:29;;;;;;;;;;;22.60;26.50;;;;;;691346;28;1339;-85
2022/04/14 01:25:50;;;;;;;;;;;22.50;26.30;;;;;;689053;28;1382;-85
2022/04/14 01:26:11;;;;;;;;;;;22.50;26.40;;;;;;691160;28;1224;-85
2022/04/14 01:26:31;;;;;;;;;;;22.50;26.30;;;;;;693982;28;1467;-86
2022/04/14 01:26:52;;;;;;;;;;;22.50;26.20;;;;;;691640;28;1360;-85
2022/04/14 01:27:13;;;;;;;;;;;22.50;26.30;;;;;;693411;28;1223;-85
2022/04/14 01:27:33;;;;;;;;;;;22.50;26.40;;;;;;691368;28;1224;-85
2022/04/14 01:27:54;;;;;;;;;;;22.50;26.40;;;;;;688898;28;1503;-85
2022/04/14 01:28:15;;;;;;;;;;;22.50;26.40;;;;;;691613;28;1228;-85
2022/04/14 01:28:35;;;;;;;;;;;22.50;26.50;;;;;;691736;28;1117;-85
2022/04/14 01:28:56;;;;;;;;;;;22.50;26.50;;;;;;691260;28;1363;-85
2022/04/14 01:29:21;;;;;;;;;;;22.50;26.40;;;;;;691297;28;1894;-85
2022/04/14 01:29:41;;;;;;;;;;;22.50;26.40;;;;;;693952;28;1117;-85
2022/04/14 01:30:02;;;;;;;;;;;22.50;26.50;;;;;;694041;28;1499;-86
2022/04/14 01:30:23;;;;;;;;;;;22.50;26.50;;;;;;692295;28;1365;-86
2022/04/14 01:30:44;;;;;;;;;;;22.50;26.50;;;;;;694911;28;1121;-85
2022/04/14 01:31:05;;;;;;;;;;;22.50;26.50;;;;;;694008;28;1213;-85
2022/04/14 01:31:25;;;;;;;;;;;22.50;26.40;;;;;;691210;28;1222;-85
2022/04/14 01:31:46;;;;;;;;;;;22.50;26.30;;;;;;691711;28;1394;-85
2022/04/14 01:32:07;;;;;;;;;;;22.50;26.30;;;;;;694403;28;1352;-86
2022/04/14 01:32:28;;;;;;;;;;;22.50;26.40;;;;;;696733;28;1228;-85
2022/04/14 01:32:48;;;;;;;;;;;22.50;26.40;;;;;;697018;28;1223;-86
2022/04/14 01:33:09;;;;;;;;;;;22.50;26.30;;;;;;696350;28;1404;-87
2022/04/14 01:33:29;;;;;;;;;;;22.50;26.30;;;;;;693961;28;1251;-85
2022/04/14 01:33:50;;;;;;;;;;;22.50;26.30;;;;;;693956;28;1083;-85
2022/04/14 01:34:10;;;;;;;;;;;21.40;25.90;;;;;;691300;28;1335;-85
2022/04/14 01:34:31;;;;;;;;;;;22.50;26.30;;;;;;688731;28;1286;-88
2022/04/14 01:34:52;;;;;;;;;;;22.50;26.40;;;;;;686075;28;1254;-87
2022/04/14 01:35:12;;;;;;;;;;;22.40;26.40;;;;;;686108;28;1235;-87
2022/04/14 01:35:33;;;;;;;;;;;22.50;26.40;;;;;;686126;28;1327;-86
2022/04/14 01:35:53;;;;;;;;;;;22.50;26.30;;;;;;688728;28;1334;-86
2022/04/14 01:36:15;;;;;;;;;;;22.50;26.20;;;;;;688616;28;1240;-85
2022/04/14 01:36:36;;;;;;;;;;;22.40;26.30;;;;;;688915;28;1236;-87
2022/04/14 01:36:57;;;;;;;;;;;22.50;26.40;;;;;;691075;28;1513;-86
2022/04/14 01:37:18;;;;;;;;;;;22.50;26.40;;;;;;691309;28;1172;-85
2022/04/14 01:37:38;;;;;;;;;;;22.50;26.50;;;;;;691478;28;729;-86
2022/04/14 01:37:59;;;;;;;;;;;22.50;26.40;;;;;;691747;28;1109;-86
2022/04/14 01:38:20;;;;;;;;;;;22.40;26.40;;;;;;694282;28;870;-85
2022/04/14 01:38:40;;;;;;;;;;;22.40;26.40;;;;;;693845;28;1237;-85
2022/04/14 01:39:01;;;;;;;;;;;22.40;26.40;;;;;;691584;28;1378;-85
2022/04/14 01:39:21;;;;;;;;;;;22.40;26.50;;;;;;693816;28;1418;-86
2022/04/14 01:39:42;;;;;;;;;;;22.40;26.50;;;;;;693873;28;1376;-87
2022/04/14 01:40:03;;;;;;;;;;;22.40;26.40;;;;;;691324;28;1256;-85
2022/04/14 01:40:24;;;;;;;;;;;22.40;26.50;;;;;;691526;28;1394;-84
2022/04/14 01:40:45;;;;;;;;;;;22.40;26.40;;;;;;694024;28;960;-86
2022/04/14 01:41:05;;;;;;;;;;;22.40;26.40;;;;;;691760;28;1190;-85
2022/04/14 01:41:26;;;;;;;;;;;22.40;26.40;;;;;;691139;28;1258;-85
2022/04/14 01:41:46;;;;;;;;;;;22.40;26.40;;;;;;688879;28;1263;-85
2022/04/14 01:42:07;;;;;;;;;;;22.40;26.40;;;;;;691542;28;812;-84
2022/04/14 01:42:28;;;;;;;;;;;22.40;26.40;;;;;;693938;28;1090;-85
2022/04/14 01:42:48;;;;;;;;;;;22.40;26.40;;;;;;694375;28;1487;-86
2022/04/14 01:43:09;;;;;;;;;;;22.40;26.50;;;;;;696984;28;1219;-85
2022/04/14 01:43:30;;;;;;;;;;;22.40;26.50;;;;;;696677;28;1172;-86
2022/04/14 01:43:50;;;;;;;;;;;22.40;26.50;;;;;;693932;28;1369;-85
2022/04/14 01:44:11;;;;;;;;;;;22.40;26.50;;;;;;691391;28;1106;-86
2022/04/14 01:44:32;;;;;;;;;;;22.40;26.50;;;;;;688649;28;1342;-86
2022/04/14 01:44:52;;;;;;;;;;;22.40;26.50;;;;;;688752;28;1480;-87
2022/04/14 01:45:13;;;;;;;;;;;22.40;26.50;;;;;;689372;28;1278;-85
2022/04/14 01:45:34;;;;;;;;;;;22.40;26.50;;;;;;692502;28;867;-84
2022/04/14 01:45:54;;;;;;;;;;;22.40;26.50;;;;;;694998;28;1222;-85
2022/04/14 01:46:15;;;;;;;;;;;22.40;26.50;;;;;;695187;28;1123;-85
2022/04/14 01:46:36;;;;;;;;;;;22.40;26.50;;;;;;695583;28;965;-85
2022/04/14 01:46:57;;;;;;;;;;;22.40;26.40;;;;;;695281;28;1264;-85
2022/04/14 01:47:17;;;;;;;;;;;22.40;26.50;;;;;;695041;28;1200;-84
2022/04/14 01:47:39;;;;;;;;;;;22.40;26.50;;;;;;695424;28;1095;-85
2022/04/14 01:47:59;;;;;;;;;;;22.40;26.50;;;;;;694759;28;1531;-84
2022/04/14 01:48:20;;;;;;;;;;;22.40;26.50;;;;;;694987;28;1078;-85
2022/04/14 01:48:40;;;;;;;;;;;22.40;26.40;;;;;;692476;28;1216;-85
2022/04/14 01:49:01;;;;;;;;;;;22.40;26.40;;;;;;694741;28;1276;-87
2022/04/14 01:49:22;;;;;;;;;;;22.40;26.60;;;;;;692066;28;1886;-86
2022/04/14 01:49:45;;;;;;;;;;;22.40;26.70;;;;;;689224;28;1334;-85
2022/04/14 01:50:07;;;;;;;;;;;22.40;26.50;;;;;;687628;28;1302;-84
2022/04/14 01:50:27;;;;;;;;;;;22.40;26.50;;;;;;688726;28;1197;-86
2022/04/14 01:50:49;;;;;;;;;;;22.40;26.50;;;;;;687538;28;1291;-86
2022/04/14 01:51:10;;;;;;;;;;;22.40;26.50;;;;;;689969;28;839;-86
2022/04/14 01:51:31;;;;;;;;;;;22.30;26.50;;;;;;692320;28;1391;-89
2022/04/14 01:51:51;;;;;;;;;;;22.40;26.50;;;;;;694108;28;803;-88
2022/04/14 01:52:12;;;;;;;;;;;22.30;26.40;;;;;;694464;28;1285;-88
2022/04/14 01:52:33;;;;;;;;;;;22.40;26.50;;;;;;697453;28;1196;-88
2022/04/14 01:52:53;;;;;;;;;;;22.40;26.50;;;;;;699532;28;815;-88
2022/04/14 01:53:14;;;;;;;;;;;22.40;26.50;;;;;;696853;28;1176;-88
2022/04/14 01:53:35;;;;;;;;;;;22.30;26.50;;;;;;696904;28;1219;-88
2022/04/14 01:53:57;;;;;;;;;;;22.40;26.60;;;;;;696711;28;1320;-88
2022/04/14 01:54:17;;;;;;;;;;;22.40;26.60;;;;;;696816;28;1218;-88
2022/04/14 01:54:38;;;;;;;;;;;22.40;26.50;;;;;;696769;28;767;-87
2022/04/14 01:54:59;;;;;;;;;;;22.40;26.50;;;;;;694533;28;1247;-87
2022/04/14 01:55:19;;;;;;;;;;;22.40;26.50;;;;;;694008;28;1339;-88
2022/04/14 01:55:40;;;;;;;;;;;22.40;26.50;;;;;;691174;28;1256;-88
2022/04/14 01:56:00;;;;;;;;;;;22.40;26.50;;;;;;694483;28;1177;-88
2022/04/14 01:56:21;;;;;;;;;;;22.40;26.50;;;;;;696688;28;1400;-88
2022/04/14 01:56:42;;;;;;;;;;;22.30;26.40;;;;;;696573;28;1700;-88
2022/04/14 01:57:03;;;;;;;;;;;22.40;26.40;;;;;;696753;28;1208;-89
2022/04/14 01:57:24;;;;;;;;;;;22.30;26.40;;;;;;693908;28;1318;-87
2022/04/14 01:57:45;;;;;;;;;;;22.30;26.40;;;;;;691694;28;1321;-88
2022/04/14 01:58:05;;;;;;;;;;;22.40;26.40;;;;;;694071;28;1256;-88
2022/04/14 01:58:26;;;;;;;;;;;22.30;26.40;;;;;;690906;28;1248;-88
2022/04/14 01:58:50;;;;;;;;;;;22.40;26.50;;;;;;691465;28;1207;-88
2022/04/14 01:59:10;;;;;;;;;;;22.40;26.50;;;;;;691139;28;1293;-88
2022/04/14 01:59:31;;;;;;;;;;;22.30;26.40;;;;;;690850;28;1114;-88
2022/04/14 01:59:52;;;;;;;;;;;22.30;26.30;;;;;;691837;28;1264;-89
2022/04/14 02:00:13;;;;;;;;;;;22.30;26.40;;;;;;691901;28;1190;-87
2022/04/14 02:00:34;;;;;;;;;;;22.30;26.40;;;;;;692192;28;1318;-88
2022/04/14 02:00:55;;;;;;;;;;;22.30;26.40;;;;;;691129;28;1291;-87
2022/04/14 02:01:16;;;;;;;;;;;22.30;26.50;;;;;;693947;28;1243;-88
2022/04/14 02:01:36;;;;;;;;;;;22.30;26.40;;;;;;691680;28;1136;-88
2022/04/14 02:01:57;;;;;;;;;;;22.30;26.40;;;;;;693977;28;1255;-88
2022/04/14 02:02:20;;;;;;;;;;;22.30;26.40;;;;;;696622;28;1220;-87
2022/04/14 02:02:46;;;;;;;;;;;22.30;26.50;;;;;;693815;28;1241;-88
2022/04/14 02:03:07;;;;;;;;;;;22.30;26.40;;;;;;692366;28;1311;-88
2022/04/14 02:03:27;;;;;;;;;;;22.30;26.40;;;;;;692769;28;736;-88
2022/04/14 02:03:48;;;;;;;;;;;22.30;26.50;;;;;;692483;28;1219;-87
2022/04/14 02:04:08;;;;;;;;;;;22.20;26.50;;;;;;693962;28;1318;-87
2022/04/14 02:04:29;;;;;;;;;;;22.30;26.40;;;;;;692293;28;1172;-88
2022/04/14 02:04:51;;;;;;;;;;;22.30;26.50;;;;;;691108;28;1117;-87
2022/04/14 02:05:11;;;;;;;;;;;22.30;26.50;;;;;;691145;28;1089;-89
2022/04/14 02:05:32;;;;;;;;;;;22.30;26.50;;;;;;691664;28;1173;-88
2022/04/14 02:05:52;;;;;;;;;;;22.30;26.50;;;;;;694001;28;866;-87